createdAt,value
2022-12-19T00:16:32.325Z,23.95
2022-12-19T00:25:46.124Z,21.48
2022-12-19T00:28:34.663Z,19.27
2022-12-19T00:31:28.263Z,20.83
2022-12-19T00:34:46.795Z,18.95
2022-12-19T00:54:19.698Z,20.45
2022-12-19T00:56:56.400Z,23.02
2022-12-19T01:10:35.804Z,20.33
2022-12-19T01:13:36.480Z,18.15
2022-12-19T01:19:56.503Z,16.85
2022-12-19T01:22:38.852Z,23.77
2022-12-19T02:34:09.041Z,25.80
2022-12-19T02:37:55.558Z,25.60
2022-12-19T02:41:41.712Z,23.10
2022-12-19T02:49:32.870Z,21.42
2022-12-19T02:57:04.991Z,21.20
2022-12-19T03:13:30.918Z,19.92
2022-12-19T03:16:12.286Z,21.10
2022-12-19T03:18:57.902Z,22.98
2022-12-19T03:21:52.534Z,21.27
2022-12-19T04:58:30.022Z,28.38
2022-12-19T05:01:07.193Z,22.80
2022-12-19T05:06:15.090Z,25.50
2022-12-19T05:44:07.911Z,20.15
2022-12-19T05:46:43.484Z,19.80
2022-12-19T05:49:27.099Z,22.10
2022-12-19T05:52:05.825Z,21.50
2022-12-19T06:22:20.284Z,24.23
2022-12-19T06:25:42.275Z,28.23
2022-12-19T06:37:08.327Z,25.08
2022-12-19T07:25:19.870Z,31.35
2022-12-19T08:38:58.749Z,29.67
2022-12-19T08:41:56.158Z,27.27
2022-12-19T09:08:04.352Z,28.30
2022-12-19T09:33:17.299Z,30.58
2022-12-19T09:55:54.488Z,39.97
2022-12-19T10:20:57.610Z,53.22
2022-12-19T11:19:34.885Z,50.88
2022-12-19T11:23:46.448Z,56.65
2022-12-19T11:29:26.348Z,54.58
2022-12-19T11:29:42.225Z,59.38
2022-12-19T11:30:59.408Z,63.38
2022-12-19T11:32:51.502Z,64.55
2022-12-19T11:35:37.042Z,66.40
2022-12-19T11:38:17.357Z,63.50
2022-12-19T11:40:58.124Z,62.42
2022-12-19T11:44:03.779Z,66.47
2022-12-19T11:47:20.038Z,61.70
2022-12-19T11:50:22.898Z,58.08
2022-12-19T11:53:18.346Z,61.55
2022-12-19T11:55:51.370Z,64.57
2022-12-19T11:58:19.038Z,61.40
2022-12-19T12:00:58.845Z,72.00
2022-12-19T12:03:40.938Z,56.60
2022-12-19T12:06:29.520Z,61.22
2022-12-19T12:10:46.064Z,57.25
2022-12-19T12:21:55.123Z,54.97
2022-12-19T12:28:24.355Z,55.88
2022-12-19T12:31:08.837Z,62.13
2022-12-19T12:31:10.966Z,56.22
2022-12-19T12:31:49.080Z,60.92
2022-12-19T12:35:08.004Z,58.40
2022-12-19T12:37:05.197Z,55.47
2022-12-19T12:41:10.638Z,55.55
2022-12-19T12:44:06.484Z,56.67
2022-12-19T12:46:45.083Z,51.97
2022-12-19T12:49:26.427Z,56.22
2022-12-19T12:51:54.420Z,64.25
2022-12-19T12:54:25.979Z,50.90
2022-12-19T12:56:55.478Z,55.40
2022-12-19T12:59:28.777Z,50.08
2022-12-19T13:02:24.054Z,60.95
2022-12-19T13:04:59.966Z,58.50
2022-12-19T13:07:44.969Z,52.28
2022-12-19T13:10:21.308Z,54.60
2022-12-19T13:13:01.296Z,52.13
2022-12-19T13:15:28.982Z,54.15
2022-12-19T13:18:27.257Z,57.53
2022-12-19T13:20:55.173Z,49.92
2022-12-19T13:23:22.685Z,56.97
2022-12-19T13:26:02.381Z,56.20
2022-12-19T13:39:59.498Z,58.30
2022-12-19T13:41:29.183Z,49.83
2022-12-19T14:04:54.530Z,55.28
2022-12-19T14:07:59.579Z,52.80
2022-12-19T14:11:33.672Z,52.15
2022-12-19T14:14:10.263Z,54.72
2022-12-19T14:16:51.467Z,57.85
2022-12-19T14:23:51.924Z,54.00
2022-12-19T14:28:25.618Z,52.38
2022-12-19T15:48:30.815Z,54.03
2022-12-19T15:50:59.459Z,59.63
2022-12-19T15:53:40.692Z,58.17
2022-12-19T15:56:24.476Z,58.92
2022-12-19T15:58:53.729Z,53.78
2022-12-19T16:01:21.881Z,57.65
2022-12-19T16:03:50.283Z,60.50
2022-12-19T16:06:18.284Z,57.42
2022-12-19T16:08:48.779Z,58.65
2022-12-19T16:11:21.522Z,58.72
2022-12-19T16:13:55.448Z,59.00
2022-12-19T16:16:23.265Z,68.95
2022-12-19T16:18:50.948Z,58.55
2022-12-19T16:21:24.640Z,59.58
2022-12-19T16:23:55.065Z,64.70
2022-12-19T16:26:31.732Z,57.45
2022-12-19T16:28:59.578Z,63.22
2022-12-19T16:31:28.308Z,62.25
2022-12-19T16:33:58.764Z,57.35
2022-12-19T16:36:29.273Z,61.40
2022-12-19T16:38:56.809Z,60.08
2022-12-19T16:41:28.516Z,62.22
2022-12-19T16:44:31.007Z,64.50
2022-12-19T16:46:58.653Z,53.88
2022-12-19T16:49:27.899Z,74.32
2022-12-19T16:51:55.351Z,55.35
2022-12-19T16:54:22.965Z,57.63
2022-12-19T16:56:53.835Z,59.67
2022-12-19T16:59:31.962Z,56.63
2022-12-19T17:02:00.393Z,60.33
2022-12-19T17:04:35.320Z,60.90
2022-12-19T17:07:13.221Z,53.13
2022-12-19T17:09:41.220Z,54.40
2022-12-19T17:12:18.321Z,60.25
2022-12-19T17:14:46.360Z,55.75
2022-12-19T17:17:17.318Z,50.45
2022-12-19T17:19:46.265Z,53.10
2022-12-19T17:22:19.041Z,54.55
2022-12-19T17:24:56.035Z,56.10
2022-12-19T17:27:28.210Z,57.67
2022-12-19T17:29:55.927Z,59.20
2022-12-19T17:32:26.628Z,52.33
2022-12-19T17:34:54.872Z,60.28
2022-12-19T17:37:22.556Z,59.00
2022-12-19T17:39:55.420Z,73.00
2022-12-19T17:42:25.119Z,58.72
2022-12-19T17:44:52.957Z,65.13
2022-12-19T17:47:33.600Z,61.63
2022-12-19T17:50:01.200Z,61.00
2022-12-19T17:52:36.975Z,54.28
2022-12-19T17:55:16.750Z,57.38
2022-12-19T17:57:44.573Z,56.20
2022-12-19T18:00:23.875Z,58.08
2022-12-19T18:03:18.197Z,53.35
2022-12-19T18:05:48.563Z,58.03
2022-12-19T18:08:24.780Z,61.20
2022-12-19T18:10:53.221Z,56.95
2022-12-19T18:13:20.817Z,62.60
2022-12-19T18:15:48.680Z,56.42
2022-12-19T18:18:21.673Z,68.28
2022-12-19T18:20:49.338Z,62.65
2022-12-19T18:23:23.635Z,64.40
2022-12-19T18:28:28.486Z,54.22
2022-12-19T18:31:01.940Z,57.13
2022-12-19T18:33:38.973Z,59.10
2022-12-19T18:36:13.734Z,60.70
2022-12-19T18:38:41.327Z,55.17
2022-12-19T18:41:13.353Z,57.60
2022-12-19T18:43:43.176Z,61.85
2022-12-19T18:46:16.347Z,50.90
2022-12-19T18:48:51.538Z,56.55
2022-12-19T18:51:21.062Z,61.05
2022-12-19T18:53:49.186Z,61.33
2022-12-19T18:56:16.724Z,59.72
2022-12-19T18:58:45.769Z,63.30
2022-12-19T19:01:17.444Z,58.22
2022-12-19T19:04:00.229Z,58.42
2022-12-19T19:06:37.812Z,57.67
2022-12-19T19:09:17.604Z,58.63
2022-12-19T19:11:56.646Z,59.33
2022-12-19T19:14:24.294Z,57.90
2022-12-19T19:16:53.378Z,61.83
2022-12-19T19:22:32.129Z,55.85
2022-12-19T19:27:40.048Z,54.92
2022-12-19T19:30:12.133Z,53.08
2022-12-19T19:32:46.893Z,50.42
2022-12-19T19:35:22.315Z,56.35
2022-12-19T19:37:56.016Z,48.47
2022-12-19T19:41:37.481Z,51.80
2022-12-19T19:44:07.695Z,60.35
2022-12-19T19:46:38.099Z,59.25
2022-12-19T19:49:06.481Z,55.30
2022-12-19T19:51:38.108Z,59.13
2022-12-19T19:54:06.402Z,50.92
2022-12-19T19:56:34.281Z,49.03
2022-12-19T19:59:06.579Z,52.58
2022-12-19T20:01:39.476Z,44.55
2022-12-19T20:04:12.852Z,48.80
2022-12-19T20:09:43.927Z,55.47
2022-12-19T20:12:14.404Z,52.50
2022-12-19T20:14:42.808Z,60.38
2022-12-19T20:17:11.968Z,54.42
2022-12-19T20:19:49.259Z,63.67
2022-12-19T20:25:48.721Z,58.35
2022-12-19T20:32:05.915Z,57.33
2022-12-19T20:34:33.798Z,63.10
2022-12-19T20:37:01.385Z,55.92
2022-12-19T20:39:29.706Z,59.85
2022-12-19T20:41:57.354Z,60.40
2022-12-19T20:44:25.552Z,56.95
2022-12-19T20:46:54.033Z,61.80
2022-12-19T20:49:24.305Z,57.72
2022-12-19T20:54:54.901Z,59.25
2022-12-19T20:57:40.654Z,55.67
2022-12-19T21:00:23.180Z,61.03
2022-12-19T21:10:17.656Z,54.28
2022-12-19T21:39:06.531Z,58.92
2022-12-19T21:42:07.014Z,61.90
2022-12-19T21:45:01.924Z,56.78
2022-12-19T21:55:14.962Z,66.57
2022-12-19T21:58:26.423Z,63.85
2022-12-19T22:01:20.689Z,62.67
2022-12-19T22:04:17.148Z,57.83
2022-12-19T22:07:14.869Z,70.30
2022-12-19T22:17:05.284Z,57.47
2022-12-19T22:19:38.852Z,54.72
2022-12-19T22:22:09.901Z,61.85
2022-12-19T22:25:19.541Z,60.40
2022-12-19T22:32:06.192Z,61.45
2022-12-19T22:35:01.675Z,51.85
2022-12-19T22:37:44.642Z,52.45
2022-12-19T22:40:13.544Z,60.47
2022-12-19T22:42:41.427Z,56.80
2022-12-19T22:45:12.304Z,54.90
2022-12-19T22:47:45.720Z,56.70
2022-12-19T22:50:13.727Z,59.20
2022-12-19T22:52:41.703Z,54.28
2022-12-19T22:55:15.948Z,57.28
2022-12-19T23:00:18.360Z,62.07
2022-12-19T23:02:50.179Z,52.50
2022-12-19T23:05:18.628Z,54.53
2022-12-19T23:07:46.534Z,53.45
2022-12-19T23:10:14.596Z,60.28
2022-12-19T23:12:42.673Z,57.42
2022-12-19T23:15:11.181Z,52.38
2022-12-19T23:17:43.006Z,53.20
2022-12-19T23:20:24.370Z,57.58
2022-12-19T23:22:54.296Z,54.13
2022-12-19T23:25:39.790Z,54.72
2022-12-19T23:28:16.446Z,61.80
2022-12-19T23:30:44.346Z,57.42
2022-12-19T23:33:16.155Z,58.17
2022-12-19T23:35:51.132Z,55.75
2022-12-19T23:38:22.044Z,60.50
2022-12-19T23:41:12.120Z,57.23
2022-12-19T23:43:53.943Z,52.80
2022-12-19T23:46:36.755Z,54.13
2022-12-19T23:49:07.959Z,57.42
2022-12-19T23:51:36.309Z,51.45
2022-12-19T23:54:10.435Z,56.60
2022-12-19T23:56:43.517Z,49.75
2022-12-19T23:59:15.766Z,52.05
